sensor_id;sensor_type;location;lat;lon;timestamp;P1;durP1;ratioP1;P2;durP2;ratioP2
35907;SDS011;22003;50.320;8.054;2022-07-12T04:00:49;6.90;;;4.57;;
35907;SDS011;22003;50.320;8.054;2022-07-12T04:03:15;7.30;;;4.43;;
35907;SDS011;22003;50.320;8.054;2022-07-12T04:05:40;8.88;;;4.65;;
35907;SDS011;22003;50.320;8.054;2022-07-12T04:08:05;6.68;;;4.88;;
35907;SDS011;22003;50.320;8.054;2022-07-12T04:10:31;6.55;;;4.75;;
35907;SDS011;22003;50.320;8.054;2022-07-12T04:12:56;7.53;;;5.07;;
35907;SDS011;22003;50.320;8.054;2022-07-12T04:15:22;10.50;;;5.90;;
35907;SDS011;22003;50.320;8.054;2022-07-12T04:17:47;6.90;;;4.70;;
35907;SDS011;22003;50.320;8.054;2022-07-12T04:20:12;7.93;;;4.88;;
35907;SDS011;22003;50.320;8.054;2022-07-12T04:22:38;13.68;;;5.57;;
35907;SDS011;22003;50.320;8.054;2022-07-12T04:25:04;9.55;;;5.82;;
35907;SDS011;22003;50.320;8.054;2022-07-12T04:27:33;10.82;;;5.20;;
35907;SDS011;22003;50.320;8.054;2022-07-12T04:29:58;10.23;;;5.65;;
35907;SDS011;22003;50.320;8.054;2022-07-12T04:32:24;12.07;;;6.18;;
35907;SDS011;22003;50.320;8.054;2022-07-12T04:34:49;6.15;;;5.18;;
35907;SDS011;22003;50.320;8.054;2022-07-12T04:37:14;6.30;;;4.88;;
35907;SDS011;22003;50.320;8.054;2022-07-12T04:39:40;19.58;;;5.47;;
35907;SDS011;22003;50.320;8.054;2022-07-12T04:42:05;10.38;;;4.70;;
35907;SDS011;22003;50.320;8.054;2022-07-12T04:44:30;9.55;;;4.72;;
35907;SDS011;22003;50.320;8.054;2022-07-12T04:46:56;7.10;;;4.28;;
35907;SDS011;22003;50.320;8.054;2022-07-12T04:49:21;10.27;;;5.15;;
35907;SDS011;22003;50.320;8.054;2022-07-12T04:51:46;11.07;;;4.88;;
35907;SDS011;22003;50.320;8.054;2022-07-12T04:54:12;7.68;;;5.22;;
35907;SDS011;22003;50.320;8.054;2022-07-12T04:56:37;7.55;;;5.20;;
35907;SDS011;22003;50.320;8.054;2022-07-12T04:59:02;6.53;;;4.80;;
35907;SDS011;22003;50.320;8.054;2022-07-12T05:01:28;9.05;;;5.25;;
35907;SDS011;22003;50.320;8.054;2022-07-12T05:03:54;10.57;;;5.65;;
35907;SDS011;22003;50.320;8.054;2022-07-12T05:06:19;7.32;;;5.10;;
35907;SDS011;22003;50.320;8.054;2022-07-12T05:08:45;12.93;;;6.20;;
35907;SDS011;22003;50.320;8.054;2022-07-12T05:11:10;9.95;;;5.55;;
35907;SDS011;22003;50.320;8.054;2022-07-12T05:13:35;11.52;;;6.22;;
35907;SDS011;22003;50.320;8.054;2022-07-12T05:16:00;8.68;;;6.25;;
35907;SDS011;22003;50.320;8.054;2022-07-12T05:18:26;8.32;;;6.22;;
35907;SDS011;22003;50.320;8.054;2022-07-12T05:20:51;9.35;;;6.00;;
35907;SDS011;22003;50.320;8.054;2022-07-12T05:23:16;10.10;;;5.47;;
35907;SDS011;22003;50.320;8.054;2022-07-12T05:25:42;13.23;;;6.40;;
35907;SDS011;22003;50.320;8.054;2022-07-12T05:28:07;8.85;;;5.78;;
35907;SDS011;22003;50.320;8.054;2022-07-12T05:30:32;12.55;;;6.70;;
35907;SDS011;22003;50.320;8.054;2022-07-12T05:32:58;10.90;;;5.93;;
35907;SDS011;22003;50.320;8.054;2022-07-12T05:35:23;10.80;;;5.90;;
35907;SDS011;22003;50.320;8.054;2022-07-12T05:37:48;12.93;;;6.15;;
35907;SDS011;22003;50.320;8.054;2022-07-12T05:40:14;14.85;;;5.68;;
35907;SDS011;22003;50.320;8.054;2022-07-12T05:42:39;9.00;;;5.72;;
35907;SDS011;22003;50.320;8.054;2022-07-12T05:45:05;17.10;;;6.40;;
35907;SDS011;22003;50.320;8.054;2022-07-12T05:47:30;8.77;;;5.85;;
35907;SDS011;22003;50.320;8.054;2022-07-12T05:49:56;13.27;;;5.90;;
35907;SDS011;22003;50.320;8.054;2022-07-12T05:52:21;11.40;;;5.80;;
35907;SDS011;22003;50.320;8.054;2022-07-12T05:55:05;12.40;;;6.50;;
35907;SDS011;22003;50.320;8.054;2022-07-12T05:57:30;15.07;;;6.18;;
35907;SDS011;22003;50.320;8.054;2022-07-12T05:59:56;13.20;;;6.43;;
35907;SDS011;22003;50.320;8.054;2022-07-12T06:02:21;18.00;;;6.28;;
35907;SDS011;22003;50.320;8.054;2022-07-12T06:04:47;13.57;;;6.13;;
35907;SDS011;22003;50.320;8.054;2022-07-12T06:07:12;13.25;;;6.15;;
35907;SDS011;22003;50.320;8.054;2022-07-12T06:09:38;18.42;;;6.90;;
35907;SDS011;22003;50.320;8.054;2022-07-12T06:12:03;14.48;;;6.55;;
35907;SDS011;22003;50.320;8.054;2022-07-12T06:17:35;10.13;;;5.45;;
35907;SDS011;22003;50.320;8.054;2022-07-12T06:20:01;11.70;;;6.43;;
35907;SDS011;22003;50.320;8.054;2022-07-12T06:22:27;12.63;;;5.90;;
35907;SDS011;22003;50.320;8.054;2022-07-12T06:24:52;13.23;;;5.88;;
35907;SDS011;22003;50.320;8.054;2022-07-12T06:27:18;16.08;;;5.70;;
35907;SDS011;22003;50.320;8.054;2022-07-12T06:29:43;10.85;;;5.13;;
35907;SDS011;22003;50.320;8.054;2022-07-12T06:32:13;14.27;;;5.90;;
35907;SDS011;22003;50.320;8.054;2022-07-12T06:34:41;11.98;;;5.55;;
35907;SDS011;22003;50.320;8.054;2022-07-12T06:37:07;6.57;;;4.57;;
35907;SDS011;22003;50.320;8.054;2022-07-12T06:39:33;9.45;;;4.78;;
35907;SDS011;22003;50.320;8.054;2022-07-12T06:42:01;7.97;;;5.18;;
35907;SDS011;22003;50.320;8.054;2022-07-12T06:44:31;8.02;;;5.22;;
35907;SDS011;22003;50.320;8.054;2022-07-12T06:46:57;10.20;;;4.85;;
35907;SDS011;22003;50.320;8.054;2022-07-12T06:49:23;8.50;;;4.65;;
35907;SDS011;22003;50.320;8.054;2022-07-12T06:51:48;7.80;;;4.43;;
35907;SDS011;22003;50.320;8.054;2022-07-12T06:54:13;9.60;;;4.32;;
35907;SDS011;22003;50.320;8.054;2022-07-12T06:56:39;9.70;;;4.93;;
35907;SDS011;22003;50.320;8.054;2022-07-12T06:59:04;8.20;;;4.63;;
35907;SDS011;22003;50.320;8.054;2022-07-12T07:01:29;11.68;;;4.68;;
35907;SDS011;22003;50.320;8.054;2022-07-12T07:03:54;7.28;;;4.43;;
35907;SDS011;22003;50.320;8.054;2022-07-12T07:06:20;9.80;;;4.40;;
35907;SDS011;22003;50.320;8.054;2022-07-12T07:08:45;6.53;;;4.13;;
35907;SDS011;22003;50.320;8.054;2022-07-12T07:11:11;9.07;;;3.63;;
35907;SDS011;22003;50.320;8.054;2022-07-12T07:13:36;6.55;;;3.40;;
35907;SDS011;22003;50.320;8.054;2022-07-12T07:16:01;8.30;;;3.97;;
35907;SDS011;22003;50.320;8.054;2022-07-12T07:18:27;7.38;;;3.67;;
35907;SDS011;22003;50.320;8.054;2022-07-12T07:20:52;5.20;;;3.78;;
35907;SDS011;22003;50.320;8.054;2022-07-12T07:23:18;5.38;;;3.55;;
35907;SDS011;22003;50.320;8.054;2022-07-12T07:25:44;9.57;;;4.07;;
35907;SDS011;22003;50.320;8.054;2022-07-12T07:28:10;7.53;;;4.35;;
35907;SDS011;22003;50.320;8.054;2022-07-12T07:30:36;10.23;;;3.67;;
35907;SDS011;22003;50.320;8.054;2022-07-12T07:33:23;4.47;;;3.40;;
35907;SDS011;22003;50.320;8.054;2022-07-12T07:35:50;8.55;;;3.85;;
35907;SDS011;22003;50.320;8.054;2022-07-12T07:38:17;8.50;;;3.42;;
35907;SDS011;22003;50.320;8.054;2022-07-12T07:40:44;10.27;;;3.63;;
35907;SDS011;22003;50.320;8.054;2022-07-12T07:43:09;8.70;;;3.65;;
35907;SDS011;22003;50.320;8.054;2022-07-12T07:45:34;7.47;;;3.53;;
35907;SDS011;22003;50.320;8.054;2022-07-12T07:48:00;14.32;;;3.72;;
35907;SDS011;22003;50.320;8.054;2022-07-12T07:50:26;10.02;;;3.65;;
35907;SDS011;22003;50.320;8.054;2022-07-12T07:52:52;8.57;;;3.72;;
35907;SDS011;22003;50.320;8.054;2022-07-12T07:55:17;4.10;;;3.17;;
35907;SDS011;22003;50.320;8.054;2022-07-12T07:57:43;5.80;;;2.95;;
35907;SDS011;22003;50.320;8.054;2022-07-12T08:00:08;4.60;;;3.15;;
35907;SDS011;22003;50.320;8.054;2022-07-12T08:02:34;6.28;;;2.83;;
35907;SDS011;22003;50.320;8.054;2022-07-12T08:04:59;4.60;;;3.10;;
35907;SDS011;22003;50.320;8.054;2022-07-12T08:07:24;3.85;;;2.70;;
35907;SDS011;22003;50.320;8.054;2022-07-12T08:09:50;5.47;;;2.85;;
35907;SDS011;22003;50.320;8.054;2022-07-12T08:12:15;3.10;;;2.40;;
35907;SDS011;22003;50.320;8.054;2022-07-12T08:14:40;3.65;;;2.35;;
35907;SDS011;22003;50.320;8.054;2022-07-12T08:17:05;2.35;;;1.95;;
35907;SDS011;22003;50.320;8.054;2022-07-12T08:19:32;2.85;;;2.05;;
35907;SDS011;22003;50.320;8.054;2022-07-12T08:21:57;2.50;;;1.83;;
35907;SDS011;22003;50.320;8.054;2022-07-12T08:24:22;4.40;;;1.80;;
35907;SDS011;22003;50.320;8.054;2022-07-12T08:26:48;3.10;;;1.60;;
35907;SDS011;22003;50.320;8.054;2022-07-12T08:29:14;2.67;;;1.45;;
35907;SDS011;22003;50.320;8.054;2022-07-12T08:31:39;2.25;;;1.20;;
35907;SDS011;22003;50.320;8.054;2022-07-12T08:34:05;1.80;;;1.58;;
35907;SDS011;22003;50.320;8.054;2022-07-12T08:36:30;1.52;;;1.30;;
35907;SDS011;22003;50.320;8.054;2022-07-12T08:38:55;3.15;;;1.50;;
35907;SDS011;22003;50.320;8.054;2022-07-12T08:41:21;1.10;;;1.00;;
35907;SDS011;22003;50.320;8.054;2022-07-12T08:43:46;1.95;;;1.50;;
35907;SDS011;22003;50.320;8.054;2022-07-12T08:46:12;1.42;;;1.33;;
35907;SDS011;22003;50.320;8.054;2022-07-12T08:48:38;3.42;;;1.80;;
35907;SDS011;22003;50.320;8.054;2022-07-12T08:51:05;1.93;;;1.37;;
35907;SDS011;22003;50.320;8.054;2022-07-12T08:53:33;1.92;;;1.60;;
35907;SDS011;22003;50.320;8.054;2022-07-12T08:55:59;3.38;;;1.85;;
35907;SDS011;22003;50.320;8.054;2022-07-12T08:58:24;2.10;;;1.25;;
35907;SDS011;22003;50.320;8.054;2022-07-12T09:00:50;1.55;;;1.27;;
35907;SDS011;22003;50.320;8.054;2022-07-12T09:03:15;1.60;;;1.20;;
35907;SDS011;22003;50.320;8.054;2022-07-12T09:05:46;1.92;;;1.38;;
35907;SDS011;22003;50.320;8.054;2022-07-12T09:08:13;1.33;;;1.20;;
35907;SDS011;22003;50.320;8.054;2022-07-12T09:14:08;1.45;;;1.35;;
35907;SDS011;22003;50.320;8.054;2022-07-12T09:16:13;2.90;;;2.20;;
35907;SDS011;22003;50.320;8.054;2022-07-12T09:18:43;2.45;;;1.70;;
35907;SDS011;22003;50.320;8.054;2022-07-12T09:21:08;2.55;;;1.55;;
35907;SDS011;22003;50.320;8.054;2022-07-12T09:23:34;3.13;;;1.85;;
35907;SDS011;22003;50.320;8.054;2022-07-12T09:25:59;2.42;;;1.75;;
35907;SDS011;22003;50.320;8.054;2022-07-12T09:28:25;2.13;;;1.50;;
35907;SDS011;22003;50.320;8.054;2022-07-12T09:30:52;2.55;;;1.50;;
35907;SDS011;22003;50.320;8.054;2022-07-12T09:33:18;2.80;;;1.50;;
35907;SDS011;22003;50.320;8.054;2022-07-12T09:36:03;1.80;;;1.38;;
35907;SDS011;22003;50.320;8.054;2022-07-12T09:41:05;1.45;;;1.30;;
35907;SDS011;22003;50.320;8.054;2022-07-12T09:43:32;1.10;;;1.00;;
35907;SDS011;22003;50.320;8.054;2022-07-12T09:45:58;1.10;;;1.00;;
35907;SDS011;22003;50.320;8.054;2022-07-12T09:48:25;1.35;;;1.00;;
35907;SDS011;22003;50.320;8.054;2022-07-12T09:50:52;1.10;;;1.00;;
35907;SDS011;22003;50.320;8.054;2022-07-12T09:53:21;1.83;;;0.90;;
35907;SDS011;22003;50.320;8.054;2022-07-12T09:55:52;1.77;;;1.30;;
35907;SDS011;22003;50.320;8.054;2022-07-12T09:58:30;1.02;;;0.93;;
35907;SDS011;22003;50.320;8.054;2022-07-12T10:01:00;1.15;;;1.05;;
35907;SDS011;22003;50.320;8.054;2022-07-12T10:05:54;0.90;;;0.85;;
35907;SDS011;22003;50.320;8.054;2022-07-12T10:08:20;1.70;;;0.70;;
35907;SDS011;22003;50.320;8.054;2022-07-12T10:10:46;1.25;;;0.70;;
35907;SDS011;22003;50.320;8.054;2022-07-12T10:13:13;0.75;;;0.70;;
35907;SDS011;22003;50.320;8.054;2022-07-12T10:15:39;0.73;;;0.50;;
35907;SDS011;22003;50.320;8.054;2022-07-12T10:18:08;0.60;;;0.60;;
35907;SDS011;22003;50.320;8.054;2022-07-12T10:20:44;1.15;;;0.60;;
35907;SDS011;22003;50.320;8.054;2022-07-12T10:25:50;1.08;;;0.90;;
35907;SDS011;22003;50.320;8.054;2022-07-12T10:28:16;1.10;;;0.80;;
35907;SDS011;22003;50.320;8.054;2022-07-12T10:30:42;1.73;;;0.80;;
35907;SDS011;22003;50.320;8.054;2022-07-12T10:33:16;2.28;;;0.80;;
35907;SDS011;22003;50.320;8.054;2022-07-12T10:35:59;2.28;;;0.82;;
35907;SDS011;22003;50.320;8.054;2022-07-12T10:38:31;0.52;;;0.52;;
35907;SDS011;22003;50.320;8.054;2022-07-12T10:40:57;0.80;;;0.80;;
35907;SDS011;22003;50.320;8.054;2022-07-12T10:43:23;0.80;;;0.80;;
35907;SDS011;22003;50.320;8.054;2022-07-12T10:46:19;1.38;;;1.00;;
35907;SDS011;22003;50.320;8.054;2022-07-12T10:48:46;1.00;;;0.88;;
35907;SDS011;22003;50.320;8.054;2022-07-12T10:51:13;1.45;;;1.05;;
35907;SDS011;22003;50.320;8.054;2022-07-12T10:53:40;1.05;;;0.93;;
35907;SDS011;22003;50.320;8.054;2022-07-12T10:56:11;1.85;;;0.95;;
35907;SDS011;22003;50.320;8.054;2022-07-12T10:58:57;1.55;;;0.93;;
35907;SDS011;22003;50.320;8.054;2022-07-12T11:01:25;1.37;;;1.00;;
35907;SDS011;22003;50.320;8.054;2022-07-12T11:06:33;0.60;;;0.60;;
35907;SDS011;22003;50.320;8.054;2022-07-12T11:09:05;1.10;;;0.90;;
35907;SDS011;22003;50.320;8.054;2022-07-12T11:11:39;1.08;;;0.98;;
35907;SDS011;22003;50.320;8.054;2022-07-12T11:14:08;1.13;;;0.70;;
35907;SDS011;22003;50.320;8.054;2022-07-12T11:16:34;2.00;;;0.77;;
35907;SDS011;22003;50.320;8.054;2022-07-12T11:18:59;0.82;;;0.82;;
35907;SDS011;22003;50.320;8.054;2022-07-12T11:21:25;1.65;;;0.68;;
35907;SDS011;22003;50.320;8.054;2022-07-12T11:23:51;1.48;;;0.60;;
35907;SDS011;22003;50.320;8.054;2022-07-12T11:26:17;0.80;;;0.80;;
35907;SDS011;22003;50.320;8.054;2022-07-12T11:28:43;1.70;;;0.95;;
35907;SDS011;22003;50.320;8.054;2022-07-12T11:31:13;1.20;;;0.82;;
35907;SDS011;22003;50.320;8.054;2022-07-12T11:33:43;0.80;;;0.80;;
35907;SDS011;22003;50.320;8.054;2022-07-12T11:36:12;1.00;;;1.00;;
35907;SDS011;22003;50.320;8.054;2022-07-12T11:38:40;0.75;;;0.60;;
35907;SDS011;22003;50.320;8.054;2022-07-12T11:41:07;0.80;;;0.75;;
35907;SDS011;22003;50.320;8.054;2022-07-12T11:46:01;1.58;;;0.70;;
35907;SDS011;22003;50.320;8.054;2022-07-12T11:48:27;0.80;;;0.80;;
35907;SDS011;22003;50.320;8.054;2022-07-12T11:50:54;0.98;;;0.98;;
35907;SDS011;22003;50.320;8.054;2022-07-12T11:53:20;14.32;;;1.73;;
35907;SDS011;22003;50.320;8.054;2022-07-12T11:58:14;3.40;;;0.95;;
35907;SDS011;22003;50.320;8.054;2022-07-12T12:00:40;1.17;;;1.00;;
35907;SDS011;22003;50.320;8.054;2022-07-12T12:03:07;0.73;;;0.70;;
35907;SDS011;22003;50.320;8.054;2022-07-12T12:05:33;1.08;;;0.95;;
35907;SDS011;22003;50.320;8.054;2022-07-12T12:07:59;0.80;;;0.80;;
35907;SDS011;22003;50.320;8.054;2022-07-12T12:10:25;1.10;;;0.70;;
35907;SDS011;22003;50.320;8.054;2022-07-12T12:12:51;2.08;;;0.50;;
35907;SDS011;22003;50.320;8.054;2022-07-12T12:15:21;1.13;;;0.50;;
35907;SDS011;22003;50.320;8.054;2022-07-12T12:17:52;0.80;;;0.80;;
35907;SDS011;22003;50.320;8.054;2022-07-12T12:20:26;0.60;;;0.52;;
35907;SDS011;22003;50.320;8.054;2022-07-12T12:22:53;0.60;;;0.60;;
35907;SDS011;22003;50.320;8.054;2022-07-12T12:25:19;0.70;;;0.70;;
35907;SDS011;22003;50.320;8.054;2022-07-12T12:27:49;2.80;;;0.73;;
35907;SDS011;22003;50.320;8.054;2022-07-12T12:30:18;0.50;;;0.50;;
35907;SDS011;22003;50.320;8.054;2022-07-12T12:32:51;2.50;;;0.63;;
35907;SDS011;22003;50.320;8.054;2022-07-12T12:35:20;0.90;;;0.60;;
35907;SDS011;22003;50.320;8.054;2022-07-12T12:37:56;1.02;;;0.82;;
35907;SDS011;22003;50.320;8.054;2022-07-12T12:40:24;0.93;;;0.60;;
35907;SDS011;22003;50.320;8.054;2022-07-12T12:45:21;1.40;;;0.60;;
35907;SDS011;22003;50.320;8.054;2022-07-12T12:47:53;1.48;;;0.45;;
35907;SDS011;22003;50.320;8.054;2022-07-12T12:50:39;0.55;;;0.55;;
35907;SDS011;22003;50.320;8.054;2022-07-12T12:53:07;0.40;;;0.40;;
35907;SDS011;22003;50.320;8.054;2022-07-12T12:55:36;0.95;;;0.50;;
35907;SDS011;22003;50.320;8.054;2022-07-12T12:58:02;0.85;;;0.63;;
35907;SDS011;22003;50.320;8.054;2022-07-12T13:00:28;0.98;;;0.68;;
35907;SDS011;22003;50.320;8.054;2022-07-12T13:02:54;0.65;;;0.65;;
35907;SDS011;22003;50.320;8.054;2022-07-12T13:05:23;0.65;;;0.63;;
35907;SDS011;22003;50.320;8.054;2022-07-12T13:07:49;1.45;;;0.55;;
35907;SDS011;22003;50.320;8.054;2022-07-12T13:10:14;0.40;;;0.40;;
35907;SDS011;22003;50.320;8.054;2022-07-12T13:12:40;1.17;;;0.68;;
35907;SDS011;22003;50.320;8.054;2022-07-12T13:15:06;0.60;;;0.60;;
35907;SDS011;22003;50.320;8.054;2022-07-12T13:17:32;0.67;;;0.67;;
35907;SDS011;22003;50.320;8.054;2022-07-12T13:19:58;0.80;;;0.63;;
35907;SDS011;22003;50.320;8.054;2022-07-12T13:22:24;0.63;;;0.50;;
35907;SDS011;22003;50.320;8.054;2022-07-12T13:24:49;0.43;;;0.43;;
35907;SDS011;22003;50.320;8.054;2022-07-12T13:27:14;0.65;;;0.63;;
35907;SDS011;22003;50.320;8.054;2022-07-12T13:29:46;0.50;;;0.50;;
35907;SDS011;22003;50.320;8.054;2022-07-12T13:32:12;0.28;;;0.28;;
35907;SDS011;22003;50.320;8.054;2022-07-12T13:34:37;0.50;;;0.50;;
35907;SDS011;22003;50.320;8.054;2022-07-12T13:37:03;0.50;;;0.50;;
35907;SDS011;22003;50.320;8.054;2022-07-12T13:39:29;0.50;;;0.50;;
35907;SDS011;22003;50.320;8.054;2022-07-12T13:42:12;0.60;;;0.60;;
35907;SDS011;22003;50.320;8.054;2022-07-12T13:44:38;1.48;;;0.50;;
35907;SDS011;22003;50.320;8.054;2022-07-12T13:47:04;0.57;;;0.50;;
35907;SDS011;22003;50.320;8.054;2022-07-12T13:49:29;1.08;;;0.50;;
35907;SDS011;22003;50.320;8.054;2022-07-12T13:51:56;1.53;;;0.70;;
35907;SDS011;22003;50.320;8.054;2022-07-12T13:54:22;0.40;;;0.40;;
35907;SDS011;22003;50.320;8.054;2022-07-12T13:56:48;0.57;;;0.47;;
35907;SDS011;22003;50.320;8.054;2022-07-12T13:59:13;0.82;;;0.40;;
35907;SDS011;22003;50.320;8.054;2022-07-12T14:01:39;0.47;;;0.47;;
35907;SDS011;22003;50.320;8.054;2022-07-12T14:04:04;0.52;;;0.50;;
35907;SDS011;22003;50.320;8.054;2022-07-12T14:06:30;0.40;;;0.40;;
35907;SDS011;22003;50.320;8.054;2022-07-12T14:08:55;0.55;;;0.40;;
35907;SDS011;22003;50.320;8.054;2022-07-12T14:11:21;1.35;;;0.60;;
35907;SDS011;22003;50.320;8.054;2022-07-12T14:13:46;0.60;;;0.60;;
35907;SDS011;22003;50.320;8.054;2022-07-12T14:16:12;0.60;;;0.60;;
35907;SDS011;22003;50.320;8.054;2022-07-12T14:18:38;2.47;;;0.57;;
35907;SDS011;22003;50.320;8.054;2022-07-12T14:21:04;2.50;;;0.57;;
35907;SDS011;22003;50.320;8.054;2022-07-12T14:23:30;0.38;;;0.38;;
35907;SDS011;22003;50.320;8.054;2022-07-12T14:25:55;0.60;;;0.50;;
35907;SDS011;22003;50.320;8.054;2022-07-12T14:28:20;0.63;;;0.45;;
35907;SDS011;22003;50.320;8.054;2022-07-12T14:30:46;2.05;;;0.57;;
35907;SDS011;22003;50.320;8.054;2022-07-12T14:33:11;2.30;;;0.75;;
35907;SDS011;22003;50.320;8.054;2022-07-12T14:35:36;18.00;;;2.45;;
35907;SDS011;22003;50.320;8.054;2022-07-12T14:38:02;0.40;;;0.40;;
35907;SDS011;22003;50.320;8.054;2022-07-12T14:40:27;0.60;;;0.60;;
35907;SDS011;22003;50.320;8.054;2022-07-12T14:42:52;0.70;;;0.60;;
35907;SDS011;22003;50.320;8.054;2022-07-12T14:45:22;0.63;;;0.63;;
35907;SDS011;22003;50.320;8.054;2022-07-12T14:47:48;1.63;;;0.50;;
35907;SDS011;22003;50.320;8.054;2022-07-12T14:50:13;0.98;;;0.85;;
35907;SDS011;22003;50.320;8.054;2022-07-12T14:52:39;0.50;;;0.50;;
35907;SDS011;22003;50.320;8.054;2022-07-12T14:55:04;1.85;;;0.57;;
35907;SDS011;22003;50.320;8.054;2022-07-12T14:57:30;1.45;;;0.65;;
35907;SDS011;22003;50.320;8.054;2022-07-12T14:59:55;0.63;;;0.52;;
35907;SDS011;22003;50.320;8.054;2022-07-12T15:02:20;3.10;;;0.50;;
35907;SDS011;22003;50.320;8.054;2022-07-12T15:04:46;0.40;;;0.40;;
35907;SDS011;22003;50.320;8.054;2022-07-12T15:07:11;0.68;;;0.68;;
35907;SDS011;22003;50.320;8.054;2022-07-12T15:09:37;0.55;;;0.55;;
35907;SDS011;22003;50.320;8.054;2022-07-12T15:12:02;0.73;;;0.57;;
35907;SDS011;22003;50.320;8.054;2022-07-12T15:14:28;0.77;;;0.55;;
35907;SDS011;22003;50.320;8.054;2022-07-12T15:16:53;0.60;;;0.55;;
35907;SDS011;22003;50.320;8.054;2022-07-12T15:19:19;0.65;;;0.47;;
35907;SDS011;22003;50.320;8.054;2022-07-12T15:21:44;2.00;;;0.43;;
35907;SDS011;22003;50.320;8.054;2022-07-12T15:24:10;0.98;;;0.90;;
35907;SDS011;22003;50.320;8.054;2022-07-12T15:26:35;2.63;;;0.80;;
35907;SDS011;22003;50.320;8.054;2022-07-12T15:29:02;0.73;;;0.57;;
35907;SDS011;22003;50.320;8.054;2022-07-12T15:31:29;1.27;;;0.45;;
35907;SDS011;22003;50.320;8.054;2022-07-12T15:33:56;0.80;;;0.60;;
35907;SDS011;22003;50.320;8.054;2022-07-12T15:36:22;1.38;;;0.60;;
35907;SDS011;22003;50.320;8.054;2022-07-12T15:38:47;0.45;;;0.45;;
35907;SDS011;22003;50.320;8.054;2022-07-12T15:41:13;0.85;;;0.60;;
35907;SDS011;22003;50.320;8.054;2022-07-12T15:43:39;1.75;;;0.68;;
35907;SDS011;22003;50.320;8.054;2022-07-12T15:46:06;0.70;;;0.57;;
35907;SDS011;22003;50.320;8.054;2022-07-12T15:48:33;0.63;;;0.45;;
35907;SDS011;22003;50.320;8.054;2022-07-12T15:50:58;0.68;;;0.47;;
35907;SDS011;22003;50.320;8.054;2022-07-12T15:53:24;0.75;;;0.55;;
35907;SDS011;22003;50.320;8.054;2022-07-12T15:58:25;3.40;;;0.50;;
35907;SDS011;22003;50.320;8.054;2022-07-12T16:00:52;0.70;;;0.50;;
35907;SDS011;22003;50.320;8.054;2022-07-12T16:03:17;0.95;;;0.82;;
35907;SDS011;22003;50.320;8.054;2022-07-12T16:05:43;2.10;;;0.40;;
35907;SDS011;22003;50.320;8.054;2022-07-12T16:08:08;3.00;;;0.80;;
35907;SDS011;22003;50.320;8.054;2022-07-12T16:10:33;0.67;;;0.67;;
35907;SDS011;22003;50.320;8.054;2022-07-12T16:12:59;1.88;;;0.65;;
35907;SDS011;22003;50.320;8.054;2022-07-12T16:15:24;0.70;;;0.70;;
35907;SDS011;22003;50.320;8.054;2022-07-12T16:17:50;0.50;;;0.50;;
35907;SDS011;22003;50.320;8.054;2022-07-12T16:20:15;1.00;;;0.90;;
35907;SDS011;22003;50.320;8.054;2022-07-12T16:22:40;0.88;;;0.60;;
35907;SDS011;22003;50.320;8.054;2022-07-12T16:25:06;1.93;;;0.43;;
35907;SDS011;22003;50.320;8.054;2022-07-12T16:27:31;0.57;;;0.40;;
35907;SDS011;22003;50.320;8.054;2022-07-12T16:29:57;1.02;;;0.60;;
35907;SDS011;22003;50.320;8.054;2022-07-12T16:32:22;1.67;;;0.50;;
35907;SDS011;22003;50.320;8.054;2022-07-12T16:34:47;1.35;;;0.88;;
35907;SDS011;22003;50.320;8.054;2022-07-12T16:37:13;0.50;;;0.50;;
35907;SDS011;22003;50.320;8.054;2022-07-12T16:39:38;2.83;;;0.77;;
35907;SDS011;22003;50.320;8.054;2022-07-12T16:42:03;0.68;;;0.68;;
35907;SDS011;22003;50.320;8.054;2022-07-12T16:44:29;0.60;;;0.60;;
35907;SDS011;22003;50.320;8.054;2022-07-12T16:46:55;1.43;;;0.70;;
35907;SDS011;22003;50.320;8.054;2022-07-12T16:49:20;0.73;;;0.70;;
35907;SDS011;22003;50.320;8.054;2022-07-12T16:51:45;2.47;;;0.70;;
35907;SDS011;22003;50.320;8.054;2022-07-12T16:54:11;1.27;;;0.70;;
35907;SDS011;22003;50.320;8.054;2022-07-12T16:56:36;2.70;;;0.57;;
35907;SDS011;22003;50.320;8.054;2022-07-12T16:59:01;0.85;;;0.70;;
35907;SDS011;22003;50.320;8.054;2022-07-12T17:01:27;0.50;;;0.50;;
35907;SDS011;22003;50.320;8.054;2022-07-12T17:03:54;1.10;;;1.00;;
35907;SDS011;22003;50.320;8.054;2022-07-12T17:06:19;1.50;;;0.68;;
35907;SDS011;22003;50.320;8.054;2022-07-12T17:08:45;0.77;;;0.77;;
35907;SDS011;22003;50.320;8.054;2022-07-12T17:11:11;1.45;;;0.60;;
35907;SDS011;22003;50.320;8.054;2022-07-12T17:13:37;0.52;;;0.52;;
35907;SDS011;22003;50.320;8.054;2022-07-12T17:16:03;0.77;;;0.63;;
35907;SDS011;22003;50.320;8.054;2022-07-12T17:18:29;1.58;;;0.57;;
35907;SDS011;22003;50.320;8.054;2022-07-12T17:20:55;0.82;;;0.50;;
35907;SDS011;22003;50.320;8.054;2022-07-12T17:23:20;0.70;;;0.70;;
35907;SDS011;22003;50.320;8.054;2022-07-12T17:25:46;0.57;;;0.57;;
35907;SDS011;22003;50.320;8.054;2022-07-12T17:28:12;0.63;;;0.63;;
35907;SDS011;22003;50.320;8.054;2022-07-12T17:30:42;0.65;;;0.65;;
35907;SDS011;22003;50.320;8.054;2022-07-12T17:33:08;1.38;;;0.70;;
35907;SDS011;22003;50.320;8.054;2022-07-12T17:35:38;1.55;;;0.70;;
35907;SDS011;22003;50.320;8.054;2022-07-12T17:38:08;1.60;;;0.65;;
35907;SDS011;22003;50.320;8.054;2022-07-12T17:40:35;0.65;;;0.65;;
35907;SDS011;22003;50.320;8.054;2022-07-12T17:43:02;2.38;;;0.75;;
35907;SDS011;22003;50.320;8.054;2022-07-12T17:45:28;2.78;;;0.95;;
35907;SDS011;22003;50.320;8.054;2022-07-12T17:47:54;0.85;;;0.73;;
35907;SDS011;22003;50.320;8.054;2022-07-12T17:50:20;1.00;;;0.80;;
35907;SDS011;22003;50.320;8.054;2022-07-12T17:52:46;1.03;;;0.87;;
35907;SDS011;22003;50.320;8.054;2022-07-12T17:55:13;1.77;;;1.10;;
35907;SDS011;22003;50.320;8.054;2022-07-12T17:57:39;1.13;;;1.00;;
35907;SDS011;22003;50.320;8.054;2022-07-12T18:00:06;0.70;;;0.70;;
35907;SDS011;22003;50.320;8.054;2022-07-12T18:02:33;0.80;;;0.80;;
35907;SDS011;22003;50.320;8.054;2022-07-12T18:04:58;0.93;;;0.80;;
35907;SDS011;22003;50.320;8.054;2022-07-12T18:07:24;0.50;;;0.50;;
35907;SDS011;22003;50.320;8.054;2022-07-12T18:09:50;1.00;;;0.80;;
35907;SDS011;22003;50.320;8.054;2022-07-12T18:12:15;1.35;;;0.85;;
35907;SDS011;22003;50.320;8.054;2022-07-12T18:14:59;1.10;;;1.00;;
35907;SDS011;22003;50.320;8.054;2022-07-12T18:17:25;0.82;;;0.80;;
35907;SDS011;22003;50.320;8.054;2022-07-12T18:20:09;3.75;;;0.95;;
35907;SDS011;22003;50.320;8.054;2022-07-12T18:22:35;0.80;;;0.80;;
35907;SDS011;22003;50.320;8.054;2022-07-12T18:25:00;1.17;;;0.90;;
35907;SDS011;22003;50.320;8.054;2022-07-12T18:27:25;1.70;;;1.00;;
35907;SDS011;22003;50.320;8.054;2022-07-12T18:29:51;1.00;;;0.88;;
35907;SDS011;22003;50.320;8.054;2022-07-12T18:34:44;0.95;;;0.80;;
35907;SDS011;22003;50.320;8.054;2022-07-12T18:37:09;1.33;;;1.23;;
35907;SDS011;22003;50.320;8.054;2022-07-12T18:39:35;0.98;;;0.90;;
35907;SDS011;22003;50.320;8.054;2022-07-12T18:42:01;0.98;;;0.85;;
35907;SDS011;22003;50.320;8.054;2022-07-12T18:44:26;1.67;;;0.90;;
35907;SDS011;22003;50.320;8.054;2022-07-12T18:46:52;1.10;;;1.00;;
35907;SDS011;22003;50.320;8.054;2022-07-12T18:49:19;1.25;;;1.15;;
35907;SDS011;22003;50.320;8.054;2022-07-12T18:51:44;1.95;;;1.45;;
35907;SDS011;22003;50.320;8.054;2022-07-12T18:54:09;1.73;;;1.20;;
35907;SDS011;22003;50.320;8.054;2022-07-12T18:56:35;1.90;;;1.30;;
35907;SDS011;22003;50.320;8.054;2022-07-12T18:59:00;1.00;;;0.90;;
35907;SDS011;22003;50.320;8.054;2022-07-12T19:01:26;0.77;;;0.60;;
35907;SDS011;22003;50.320;8.054;2022-07-12T19:03:52;1.15;;;0.68;;
35907;SDS011;22003;50.320;8.054;2022-07-12T19:06:18;1.58;;;0.98;;
35907;SDS011;22003;50.320;8.054;2022-07-12T19:08:43;1.08;;;1.00;;
35907;SDS011;22003;50.320;8.054;2022-07-12T19:11:09;1.30;;;1.00;;